Lackland AFB, Texas
Current Conditions -  °F | °C
As of 8:58 PM on Thursday 27 Nov 2014 (Local Time) from KSKF Reporting Station
Clear Clear  
Wind Chill: 47°   Ceiling: Unl
Heat Index: 47°   Visibility: 10mi
Dew Point: 37°   Wind: 1mph
Humidity: 66%   Direction: 40°NE
Pressure: 30.39"   Gusts: NA
Location:  29.3853°N, 98.6099°W
Report Text: KSKF 280258Z AUTO 04001KT 10SM CLR 09/03 A3039 RMK AO2 SLP292 T00850025 50003 $
Loading
Personal Weather Stations






























Interactive Weather Map New forecast layout! Learn more

10-Day Weather Forecast

Advertisements
Track Severe Weather on mobile